sensor_id;sensor_type;location;lat;lon;timestamp;pressure;altitude;pressure_sealevel;temperature;humidity
9784;BME280;4931;44.874;-1.092;2024-02-04T00:00:23;105201.63;;;5.72;100.00
9784;BME280;4931;44.874;-1.092;2024-02-04T00:02:48;105230.91;;;5.70;100.00
9784;BME280;4931;44.874;-1.092;2024-02-04T00:05:14;105248.38;;;5.68;100.00
9784;BME280;4931;44.874;-1.092;2024-02-04T00:07:39;105277.75;;;5.64;100.00
9784;BME280;4931;44.874;-1.092;2024-02-04T00:10:05;105354.50;;;5.69;100.00
9784;BME280;4931;44.874;-1.092;2024-02-04T00:12:31;105366.97;;;5.93;100.00
9784;BME280;4931;44.874;-1.092;2024-02-04T00:14:56;105413.19;;;5.94;100.00
9784;BME280;4931;44.874;-1.092;2024-02-04T00:17:22;105413.38;;;5.81;100.00
9784;BME280;4931;44.874;-1.092;2024-02-04T00:19:48;105433.81;;;5.87;100.00
9784;BME280;4931;44.874;-1.092;2024-02-04T00:22:13;105461.63;;;5.91;100.00
9784;BME280;4931;44.874;-1.092;2024-02-04T00:24:39;105483.91;;;5.96;100.00
9784;BME280;4931;44.874;-1.092;2024-02-04T00:27:04;105473.88;;;5.75;100.00
9784;BME280;4931;44.874;-1.092;2024-02-04T00:29:29;105505.09;;;5.71;100.00
9784;BME280;4931;44.874;-1.092;2024-02-04T00:31:55;105499.50;;;5.52;100.00
9784;BME280;4931;44.874;-1.092;2024-02-04T00:34:21;105511.72;;;5.69;100.00
9784;BME280;4931;44.874;-1.092;2024-02-04T00:36:46;105502.38;;;5.71;100.00
9784;BME280;4931;44.874;-1.092;2024-02-04T00:39:12;105481.31;;;5.73;100.00
9784;BME280;4931;44.874;-1.092;2024-02-04T00:41:37;105454.34;;;5.70;100.00
9784;BME280;4931;44.874;-1.092;2024-02-04T00:44:02;105440.25;;;5.65;100.00
9784;BME280;4931;44.874;-1.092;2024-02-04T00:46:28;105418.69;;;5.62;100.00
9784;BME280;4931;44.874;-1.092;2024-02-04T00:48:53;105389.19;;;5.67;100.00
9784;BME280;4931;44.874;-1.092;2024-02-04T00:51:19;105362.22;;;5.64;100.00
9784;BME280;4931;44.874;-1.092;2024-02-04T00:53:46;105342.16;;;5.65;100.00
9784;BME280;4931;44.874;-1.092;2024-02-04T00:56:11;105325.53;;;5.68;100.00
9784;BME280;4931;44.874;-1.092;2024-02-04T00:58:38;105306.63;;;5.76;100.00
9784;BME280;4931;44.874;-1.092;2024-02-04T01:01:04;105277.38;;;5.78;100.00
9784;BME280;4931;44.874;-1.092;2024-02-04T01:03:31;105266.19;;;5.81;100.00
9784;BME280;4931;44.874;-1.092;2024-02-04T01:05:56;105238.50;;;5.76;100.00
9784;BME280;4931;44.874;-1.092;2024-02-04T01:08:22;105237.78;;;5.74;100.00
9784;BME280;4931;44.874;-1.092;2024-02-04T01:10:47;105217.72;;;5.75;100.00
9784;BME280;4931;44.874;-1.092;2024-02-04T01:13:13;105207.28;;;5.80;100.00
9784;BME280;4931;44.874;-1.092;2024-02-04T01:15:39;105197.81;;;5.85;100.00
9784;BME280;4931;44.874;-1.092;2024-02-04T01:18:04;105190.78;;;5.82;100.00
9784;BME280;4931;44.874;-1.092;2024-02-04T01:20:30;105189.91;;;5.81;100.00
9784;BME280;4931;44.874;-1.092;2024-02-04T01:22:55;105193.66;;;5.80;100.00
9784;BME280;4931;44.874;-1.092;2024-02-04T01:25:21;105202.97;;;5.78;100.00
9784;BME280;4931;44.874;-1.092;2024-02-04T01:27:46;105201.38;;;5.85;100.00
9784;BME280;4931;44.874;-1.092;2024-02-04T01:30:12;105211.59;;;5.93;100.00
9784;BME280;4931;44.874;-1.092;2024-02-04T01:32:37;105200.25;;;5.88;100.00
9784;BME280;4931;44.874;-1.092;2024-02-04T01:35:03;105199.09;;;5.80;100.00
9784;BME280;4931;44.874;-1.092;2024-02-04T01:37:28;105210.00;;;5.80;100.00
9784;BME280;4931;44.874;-1.092;2024-02-04T01:39:54;105213.25;;;5.74;100.00
9784;BME280;4931;44.874;-1.092;2024-02-04T01:42:19;105200.47;;;5.65;100.00
9784;BME280;4931;44.874;-1.092;2024-02-04T01:44:45;105212.38;;;5.74;100.00
9784;BME280;4931;44.874;-1.092;2024-02-04T01:47:10;105194.72;;;5.68;100.00
9784;BME280;4931;44.874;-1.092;2024-02-04T01:49:36;105199.63;;;5.74;100.00
9784;BME280;4931;44.874;-1.092;2024-02-04T01:52:03;105201.94;;;5.79;100.00
9784;BME280;4931;44.874;-1.092;2024-02-04T01:54:31;105193.31;;;5.74;100.00
9784;BME280;4931;44.874;-1.092;2024-02-04T01:56:58;105195.91;;;5.75;100.00
9784;BME280;4931;44.874;-1.092;2024-02-04T01:59:24;105205.09;;;5.74;100.00
9784;BME280;4931;44.874;-1.092;2024-02-04T02:01:56;105192.47;;;5.73;100.00
9784;BME280;4931;44.874;-1.092;2024-02-04T02:04:24;105180.97;;;5.70;100.00
9784;BME280;4931;44.874;-1.092;2024-02-04T02:06:50;105182.56;;;5.72;100.00
9784;BME280;4931;44.874;-1.092;2024-02-04T02:09:16;105182.69;;;5.61;100.00
9784;BME280;4931;44.874;-1.092;2024-02-04T02:11:47;105181.78;;;5.51;100.00
9784;BME280;4931;44.874;-1.092;2024-02-04T02:14:20;105193.56;;;5.61;100.00
9784;BME280;4931;44.874;-1.092;2024-02-04T02:16:48;105195.03;;;5.65;100.00
9784;BME280;4931;44.874;-1.092;2024-02-04T02:19:40;105199.72;;;5.63;100.00
9784;BME280;4931;44.874;-1.092;2024-02-04T02:22:26;105205.91;;;5.65;100.00
9784;BME280;4931;44.874;-1.092;2024-02-04T02:24:56;105200.91;;;5.70;100.00
9784;BME280;4931;44.874;-1.092;2024-02-04T02:27:21;105201.91;;;5.69;100.00
9784;BME280;4931;44.874;-1.092;2024-02-04T02:29:47;105195.47;;;5.70;100.00
9784;BME280;4931;44.874;-1.092;2024-02-04T02:32:12;105201.38;;;5.75;100.00
9784;BME280;4931;44.874;-1.092;2024-02-04T02:34:38;105199.34;;;5.77;100.00
9784;BME280;4931;44.874;-1.092;2024-02-04T02:37:39;105203.34;;;5.73;100.00
9784;BME280;4931;44.874;-1.092;2024-02-04T02:40:03;105200.09;;;5.79;100.00
9784;BME280;4931;44.874;-1.092;2024-02-04T02:42:32;105200.25;;;5.88;100.00
9784;BME280;4931;44.874;-1.092;2024-02-04T02:44:59;105201.16;;;5.98;100.00
9784;BME280;4931;44.874;-1.092;2024-02-04T02:47:26;105209.13;;;5.80;100.00
9784;BME280;4931;44.874;-1.092;2024-02-04T02:49:53;105201.09;;;5.78;100.00
9784;BME280;4931;44.874;-1.092;2024-02-04T02:52:22;105195.34;;;5.81;100.00
9784;BME280;4931;44.874;-1.092;2024-02-04T02:54:48;105197.22;;;5.91;100.00
9784;BME280;4931;44.874;-1.092;2024-02-04T02:57:13;105183.75;;;5.89;100.00
9784;BME280;4931;44.874;-1.092;2024-02-04T02:59:39;105188.75;;;5.84;100.00
9784;BME280;4931;44.874;-1.092;2024-02-04T03:02:04;105195.03;;;5.75;100.00
9784;BME280;4931;44.874;-1.092;2024-02-04T03:04:30;105189.00;;;5.71;100.00
9784;BME280;4931;44.874;-1.092;2024-02-04T03:06:55;105185.56;;;5.69;100.00
9784;BME280;4931;44.874;-1.092;2024-02-04T03:09:21;105191.72;;;5.71;100.00
9784;BME280;4931;44.874;-1.092;2024-02-04T03:11:46;105192.16;;;5.67;100.00
9784;BME280;4931;44.874;-1.092;2024-02-04T03:14:13;105193.28;;;5.64;100.00
9784;BME280;4931;44.874;-1.092;2024-02-04T03:16:39;105181.19;;;5.57;100.00
9784;BME280;4931;44.874;-1.092;2024-02-04T03:19:05;105181.84;;;5.70;100.00
9784;BME280;4931;44.874;-1.092;2024-02-04T03:21:31;105182.94;;;5.58;100.00
9784;BME280;4931;44.874;-1.092;2024-02-04T03:23:57;105170.88;;;5.51;100.00
9784;BME280;4931;44.874;-1.092;2024-02-04T03:26:22;105172.88;;;5.48;100.00
9784;BME280;4931;44.874;-1.092;2024-02-04T03:28:48;105172.88;;;5.48;100.00
9784;BME280;4931;44.874;-1.092;2024-02-04T03:31:21;105172.00;;;5.48;100.00
9784;BME280;4931;44.874;-1.092;2024-02-04T03:33:47;105175.75;;;5.57;100.00
9784;BME280;4931;44.874;-1.092;2024-02-04T03:36:15;105175.34;;;5.61;100.00
9784;BME280;4931;44.874;-1.092;2024-02-04T03:38:40;105174.22;;;5.64;100.00
9784;BME280;4931;44.874;-1.092;2024-02-04T03:41:06;105165.75;;;5.67;100.00
9784;BME280;4931;44.874;-1.092;2024-02-04T03:43:31;105167.78;;;5.65;100.00
9784;BME280;4931;44.874;-1.092;2024-02-04T03:45:57;105169.44;;;5.46;100.00
9784;BME280;4931;44.874;-1.092;2024-02-04T03:48:22;105169.69;;;5.43;100.00
9784;BME280;4931;44.874;-1.092;2024-02-04T03:50:47;105165.97;;;5.44;100.00
9784;BME280;4931;44.874;-1.092;2024-02-04T03:53:13;105171.63;;;5.62;100.00
9784;BME280;4931;44.874;-1.092;2024-02-04T03:55:38;105173.47;;;5.62;100.00
9784;BME280;4931;44.874;-1.092;2024-02-04T03:58:04;105171.44;;;5.44;100.00
9784;BME280;4931;44.874;-1.092;2024-02-04T04:00:29;105170.88;;;5.51;100.00
9784;BME280;4931;44.874;-1.092;2024-02-04T04:02:55;105169.69;;;5.43;100.00
9784;BME280;4931;44.874;-1.092;2024-02-04T04:05:20;105168.00;;;5.52;100.00
9784;BME280;4931;44.874;-1.092;2024-02-04T04:07:48;105169.06;;;5.61;100.00
9784;BME280;4931;44.874;-1.092;2024-02-04T04:10:14;105160.31;;;5.67;100.00
9784;BME280;4931;44.874;-1.092;2024-02-04T04:12:39;105166.59;;;5.58;100.00
9784;BME280;4931;44.874;-1.092;2024-02-04T04:15:05;105158.53;;;5.46;100.00
9784;BME280;4931;44.874;-1.092;2024-02-04T04:17:31;105163.53;;;5.41;100.00
9784;BME280;4931;44.874;-1.092;2024-02-04T04:19:56;105153.94;;;5.47;100.00
9784;BME280;4931;44.874;-1.092;2024-02-04T04:22:21;105152.34;;;5.35;100.00
9784;BME280;4931;44.874;-1.092;2024-02-04T04:24:47;105143.03;;;5.37;100.00
9784;BME280;4931;44.874;-1.092;2024-02-04T04:27:13;105145.91;;;5.45;100.00
9784;BME280;4931;44.874;-1.092;2024-02-04T04:29:38;105148.19;;;5.40;100.00
9784;BME280;4931;44.874;-1.092;2024-02-04T04:32:04;105143.03;;;5.37;100.00
9784;BME280;4931;44.874;-1.092;2024-02-04T04:34:30;105129.66;;;5.34;100.00
9784;BME280;4931;44.874;-1.092;2024-02-04T04:36:55;105146.16;;;5.42;100.00
9784;BME280;4931;44.874;-1.092;2024-02-04T04:39:21;105138.75;;;5.44;100.00
9784;BME280;4931;44.874;-1.092;2024-02-04T04:41:46;105133.56;;;5.41;100.00
9784;BME280;4931;44.874;-1.092;2024-02-04T04:44:12;105129.56;;;5.45;100.00
9784;BME280;4931;44.874;-1.092;2024-02-04T04:46:38;105133.56;;;5.41;100.00
9784;BME280;4931;44.874;-1.092;2024-02-04T04:49:05;105133.28;;;5.44;100.00
9784;BME280;4931;44.874;-1.092;2024-02-04T04:51:30;105133.28;;;5.44;100.00
9784;BME280;4931;44.874;-1.092;2024-02-04T04:53:56;105133.38;;;5.33;100.00
9784;BME280;4931;44.874;-1.092;2024-02-04T04:56:21;105139.56;;;5.35;100.00
9784;BME280;4931;44.874;-1.092;2024-02-04T04:58:47;105115.56;;;5.19;100.00
9784;BME280;4931;44.874;-1.092;2024-02-04T05:01:12;105104.22;;;5.14;100.00
9784;BME280;4931;44.874;-1.092;2024-02-04T05:03:37;105125.47;;;5.20;100.00
9784;BME280;4931;44.874;-1.092;2024-02-04T05:06:03;105118.25;;;5.09;100.00
9784;BME280;4931;44.874;-1.092;2024-02-04T05:08:29;105122.44;;;5.13;100.00
9784;BME280;4931;44.874;-1.092;2024-02-04T05:10:54;105128.91;;;5.22;100.00
9784;BME280;4931;44.874;-1.092;2024-02-04T05:13:19;105128.06;;;5.22;100.00
9784;BME280;4931;44.874;-1.092;2024-02-04T05:15:45;105110.84;;;5.21;100.00
9784;BME280;4931;44.874;-1.092;2024-02-04T05:18:10;105118.91;;;5.32;100.00
9784;BME280;4931;44.874;-1.092;2024-02-04T05:20:36;105113.16;;;5.26;100.00
9784;BME280;4931;44.874;-1.092;2024-02-04T05:23:01;105126.25;;;5.32;100.00
9784;BME280;4931;44.874;-1.092;2024-02-04T05:25:27;105124.13;;;5.14;100.00
9784;BME280;4931;44.874;-1.092;2024-02-04T05:27:52;105119.34;;;4.97;100.00
9784;BME280;4931;44.874;-1.092;2024-02-04T05:30:18;105128.34;;;4.97;100.00
9784;BME280;4931;44.874;-1.092;2024-02-04T05:32:43;105121.66;;;4.80;100.00
9784;BME280;4931;44.874;-1.092;2024-02-04T05:35:10;105116.38;;;4.79;100.00
9784;BME280;4931;44.874;-1.092;2024-02-04T05:37:36;105109.53;;;4.85;100.00
9784;BME280;4931;44.874;-1.092;2024-02-04T05:40:03;105118.13;;;4.90;100.00
9784;BME280;4931;44.874;-1.092;2024-02-04T05:42:30;105121.59;;;4.92;100.00
9784;BME280;4931;44.874;-1.092;2024-02-04T05:44:57;105113.81;;;4.87;100.00
9784;BME280;4931;44.874;-1.092;2024-02-04T05:47:23;105112.97;;;4.87;100.00
9784;BME280;4931;44.874;-1.092;2024-02-04T05:49:48;105111.56;;;4.92;100.00
9784;BME280;4931;44.874;-1.092;2024-02-04T05:52:14;105112.69;;;4.90;100.00
9784;BME280;4931;44.874;-1.092;2024-02-04T05:54:40;105109.78;;;4.81;100.00
9784;BME280;4931;44.874;-1.092;2024-02-04T05:57:05;105100.34;;;4.86;100.00
9784;BME280;4931;44.874;-1.092;2024-02-04T05:59:32;105078.44;;;4.87;100.00
9784;BME280;4931;44.874;-1.092;2024-02-04T06:01:57;105069.66;;;5.05;100.00
9784;BME280;4931;44.874;-1.092;2024-02-04T06:04:23;105076.56;;;5.09;100.00
9784;BME280;4931;44.874;-1.092;2024-02-04T06:06:48;105071.25;;;5.07;100.00
9784;BME280;4931;44.874;-1.092;2024-02-04T06:09:14;105068.09;;;5.02;100.00
9784;BME280;4931;44.874;-1.092;2024-02-04T06:11:39;105071.34;;;4.96;100.00
9784;BME280;4931;44.874;-1.092;2024-02-04T06:14:05;105069.06;;;5.01;100.00
9784;BME280;4931;44.874;-1.092;2024-02-04T06:16:30;105058.03;;;4.93;100.00
9784;BME280;4931;44.874;-1.092;2024-02-04T06:18:56;105074.22;;;5.04;100.00
9784;BME280;4931;44.874;-1.092;2024-02-04T06:21:23;105075.66;;;4.98;100.00
9784;BME280;4931;44.874;-1.092;2024-02-04T06:23:50;105073.81;;;4.99;100.00
9784;BME280;4931;44.874;-1.092;2024-02-04T06:26:15;105083.81;;;4.98;100.00
9784;BME280;4931;44.874;-1.092;2024-02-04T06:28:41;105091.38;;;4.95;100.00
9784;BME280;4931;44.874;-1.092;2024-02-04T06:31:10;105081.31;;;4.86;100.00
9784;BME280;4931;44.874;-1.092;2024-02-04T06:33:36;105084.31;;;4.82;100.00
9784;BME280;4931;44.874;-1.092;2024-02-04T06:36:01;105077.56;;;4.77;100.00
9784;BME280;4931;44.874;-1.092;2024-02-04T06:38:27;105073.81;;;4.78;100.00
9784;BME280;4931;44.874;-1.092;2024-02-04T06:40:52;105084.00;;;4.76;100.00
9784;BME280;4931;44.874;-1.092;2024-02-04T06:43:18;105091.50;;;4.84;100.00
9784;BME280;4931;44.874;-1.092;2024-02-04T06:45:43;105082.88;;;4.78;100.00
9784;BME280;4931;44.874;-1.092;2024-02-04T06:48:08;105092.16;;;4.76;100.00
9784;BME280;4931;44.874;-1.092;2024-02-04T06:50:35;105101.38;;;4.85;100.00
9784;BME280;4931;44.874;-1.092;2024-02-04T06:53:05;105088.50;;;4.87;100.00
9784;BME280;4931;44.874;-1.092;2024-02-04T06:55:31;105084.59;;;4.79;100.00
9784;BME280;4931;44.874;-1.092;2024-02-04T06:57:57;105101.38;;;4.85;100.00
9784;BME280;4931;44.874;-1.092;2024-02-04T07:00:25;105097.38;;;4.89;100.00
9784;BME280;4931;44.874;-1.092;2024-02-04T07:02:51;105107.47;;;4.98;100.00
9784;BME280;4931;44.874;-1.092;2024-02-04T07:05:16;105100.81;;;4.91;100.00
9784;BME280;4931;44.874;-1.092;2024-02-04T07:07:42;105107.25;;;4.90;100.00
9784;BME280;4931;44.874;-1.092;2024-02-04T07:10:08;105093.25;;;4.94;100.00
9784;BME280;4931;44.874;-1.092;2024-02-04T07:12:34;105105.66;;;5.08;100.00
9784;BME280;4931;44.874;-1.092;2024-02-04T07:14:59;105104.06;;;5.06;100.00
9784;BME280;4931;44.874;-1.092;2024-02-04T07:17:24;105094.78;;;4.87;100.00
9784;BME280;4931;44.874;-1.092;2024-02-04T07:19:50;105094.81;;;4.66;100.00
9784;BME280;4931;44.874;-1.092;2024-02-04T07:22:15;105090.16;;;4.57;100.00
9784;BME280;4931;44.874;-1.092;2024-02-04T07:24:41;105094.44;;;4.49;100.00
9784;BME280;4931;44.874;-1.092;2024-02-04T07:27:06;105089.31;;;4.56;100.00
9784;BME280;4931;44.874;-1.092;2024-02-04T07:29:31;105088.56;;;4.75;100.00
9784;BME280;4931;44.874;-1.092;2024-02-04T07:31:57;105097.75;;;4.74;100.00
9784;BME280;4931;44.874;-1.092;2024-02-04T07:34:23;105119.53;;;6.06;100.00
9784;BME280;4931;44.874;-1.092;2024-02-04T07:36:49;105113.84;;;5.59;100.00
9784;BME280;4931;44.874;-1.092;2024-02-04T07:39:14;105083.91;;;4.66;100.00
9784;BME280;4931;44.874;-1.092;2024-02-04T07:41:39;105087.38;;;4.68;100.00
9784;BME280;4931;44.874;-1.092;2024-02-04T07:44:05;105097.94;;;4.61;100.00
9784;BME280;4931;44.874;-1.092;2024-02-04T07:46:30;105107.41;;;4.67;100.00
9784;BME280;4931;44.874;-1.092;2024-02-04T07:48:56;105105.31;;;4.71;100.00
9784;BME280;4931;44.874;-1.092;2024-02-04T07:51:21;105105.69;;;4.66;100.00
9784;BME280;4931;44.874;-1.092;2024-02-04T07:53:47;105108.34;;;4.77;100.00
9784;BME280;4931;44.874;-1.092;2024-02-04T07:56:13;105104.34;;;4.81;100.00
9784;BME280;4931;44.874;-1.092;2024-02-04T07:58:38;105116.31;;;4.69;100.00
9784;BME280;4931;44.874;-1.092;2024-02-04T08:01:04;105114.31;;;4.71;100.00
9784;BME280;4931;44.874;-1.092;2024-02-04T08:03:29;105100.19;;;4.56;100.00
9784;BME280;4931;44.874;-1.092;2024-02-04T08:05:54;105113.28;;;4.62;100.00
9784;BME280;4931;44.874;-1.092;2024-02-04T08:08:20;105123.22;;;4.73;100.00
9784;BME280;4931;44.874;-1.092;2024-02-04T08:10:46;105120.97;;;4.78;100.00
9784;BME280;4931;44.874;-1.092;2024-02-04T08:13:11;105130.03;;;4.89;100.00
9784;BME280;4931;44.874;-1.092;2024-02-04T08:15:37;105134.22;;;4.93;100.00
9784;BME280;4931;44.874;-1.092;2024-02-04T08:18:03;105125.41;;;4.79;100.00
9784;BME280;4931;44.874;-1.092;2024-02-04T08:20:28;105128.56;;;4.63;100.00
9784;BME280;4931;44.874;-1.092;2024-02-04T08:22:54;105127.19;;;4.69;100.00
9784;BME280;4931;44.874;-1.092;2024-02-04T08:25:19;105121.75;;;4.69;100.00
9784;BME280;4931;44.874;-1.092;2024-02-04T08:27:45;105132.09;;;4.75;100.00
9784;BME280;4931;44.874;-1.092;2024-02-04T08:30:11;105139.34;;;4.65;100.00
9784;BME280;4931;44.874;-1.092;2024-02-04T08:32:38;105126.66;;;4.54;100.00
9784;BME280;4931;44.874;-1.092;2024-02-04T08:35:04;105145.78;;;4.64;100.00
9784;BME280;4931;44.874;-1.092;2024-02-04T08:37:31;105132.84;;;4.77;100.00
9784;BME280;4931;44.874;-1.092;2024-02-04T08:39:57;105145.78;;;4.64;100.00
9784;BME280;4931;44.874;-1.092;2024-02-04T08:42:22;105140.59;;;4.61;100.00
9784;BME280;4931;44.874;-1.092;2024-02-04T08:44:48;105136.31;;;4.58;100.00
9784;BME280;4931;44.874;-1.092;2024-02-04T08:47:13;105135.41;;;4.58;100.00
9784;BME280;4931;44.874;-1.092;2024-02-04T08:49:41;105146.72;;;4.74;100.00
9784;BME280;4931;44.874;-1.092;2024-02-04T08:52:07;105149.03;;;4.79;100.00
9784;BME280;4931;44.874;-1.092;2024-02-04T08:54:32;105152.88;;;4.76;100.00
9784;BME280;4931;44.874;-1.092;2024-02-04T08:56:57;105152.63;;;4.79;100.00
9784;BME280;4931;44.874;-1.092;2024-02-04T08:59:23;105161.16;;;4.96;100.00
9784;BME280;4931;44.874;-1.092;2024-02-04T09:01:50;105156.50;;;4.87;100.00
9784;BME280;4931;44.874;-1.092;2024-02-04T09:04:15;105165.19;;;4.80;100.00
9784;BME280;4931;44.874;-1.092;2024-02-04T09:06:41;105168.34;;;4.76;100.00
9784;BME280;4931;44.874;-1.092;2024-02-04T09:09:06;105162.25;;;4.84;100.00
9784;BME280;4931;44.874;-1.092;2024-02-04T09:11:33;105163.50;;;5.01;100.00
9784;BME280;4931;44.874;-1.092;2024-02-04T09:13:59;105159.16;;;4.98;100.00
9784;BME280;4931;44.874;-1.092;2024-02-04T09:16:24;105161.63;;;5.01;100.00
9784;BME280;4931;44.874;-1.092;2024-02-04T09:18:50;105162.59;;;5.00;100.00
9784;BME280;4931;44.874;-1.092;2024-02-04T09:21:15;105179.34;;;4.95;100.00
9784;BME280;4931;44.874;-1.092;2024-02-04T09:23:41;105185.97;;;5.03;100.00
9784;BME280;4931;44.874;-1.092;2024-02-04T09:26:07;105190.63;;;4.91;100.00
9784;BME280;4931;44.874;-1.092;2024-02-04T09:28:32;105196.63;;;4.85;100.00
9784;BME280;4931;44.874;-1.092;2024-02-04T09:30:58;105199.06;;;4.88;100.00
9784;BME280;4931;44.874;-1.092;2024-02-04T09:33:23;105208.72;;;5.02;100.00
9784;BME280;4931;44.874;-1.092;2024-02-04T09:35:49;105201.38;;;4.92;100.00
9784;BME280;4931;44.874;-1.092;2024-02-04T09:38:14;105210.41;;;4.93;100.00
9784;BME280;4931;44.874;-1.092;2024-02-04T09:40:41;105208.69;;;4.92;100.00
9784;BME280;4931;44.874;-1.092;2024-02-04T09:43:06;105207.59;;;5.04;100.00
9784;BME280;4931;44.874;-1.092;2024-02-04T09:45:33;105216.19;;;4.99;100.00
9784;BME280;4931;44.874;-1.092;2024-02-04T09:47:59;105208.22;;;5.08;100.00
9784;BME280;4931;44.874;-1.092;2024-02-04T09:50:26;105210.22;;;5.06;100.00
9784;BME280;4931;44.874;-1.092;2024-02-04T09:52:55;105206.22;;;5.10;100.00
9784;BME280;4931;44.874;-1.092;2024-02-04T09:55:24;105222.94;;;5.26;100.00
9784;BME280;4931;44.874;-1.092;2024-02-04T09:57:50;105217.75;;;5.23;100.00
9784;BME280;4931;44.874;-1.092;2024-02-04T10:00:18;105225.44;;;5.08;100.00
9784;BME280;4931;44.874;-1.092;2024-02-04T10:02:47;105226.88;;;5.12;100.00
9784;BME280;4931;44.874;-1.092;2024-02-04T10:05:13;105239.22;;;5.17;100.00
9784;BME280;4931;44.874;-1.092;2024-02-04T10:07:39;105230.63;;;5.21;100.00
9784;BME280;4931;44.874;-1.092;2024-02-04T10:10:06;105225.19;;;5.21;100.00
9784;BME280;4931;44.874;-1.092;2024-02-04T10:12:32;105233.31;;;5.11;100.00
9784;BME280;4931;44.874;-1.092;2024-02-04T10:14:58;105229.84;;;5.09;100.00
9784;BME280;4931;44.874;-1.092;2024-02-04T10:17:25;105214.13;;;4.92;100.00
9784;BME280;4931;44.874;-1.092;2024-02-04T10:19:50;105211.22;;;5.05;100.00
9784;BME280;4931;44.874;-1.092;2024-02-04T10:22:16;105227.81;;;5.23;100.00
9784;BME280;4931;44.874;-1.092;2024-02-04T10:24:42;105222.59;;;5.20;100.00
9784;BME280;4931;44.874;-1.092;2024-02-04T10:27:10;105230.78;;;5.20;100.00
9784;BME280;4931;44.874;-1.092;2024-02-04T10:29:36;105234.09;;;5.23;100.00
9784;BME280;4931;44.874;-1.092;2024-02-04T10:32:02;105231.97;;;5.27;100.00
9784;BME280;4931;44.874;-1.092;2024-02-04T10:34:28;105225.88;;;5.35;100.00
9784;BME280;4931;44.874;-1.092;2024-02-04T10:36:56;105231.16;;;5.36;100.00
9784;BME280;4931;44.874;-1.092;2024-02-04T10:39:21;105230.59;;;5.42;100.00
9784;BME280;4931;44.874;-1.092;2024-02-04T10:41:51;105235.53;;;5.48;100.00
9784;BME280;4931;44.874;-1.092;2024-02-04T10:44:18;105238.88;;;5.62;100.00
9784;BME280;4931;44.874;-1.092;2024-02-04T10:46:50;105236.50;;;5.47;100.00
9784;BME280;4931;44.874;-1.092;2024-02-04T10:49:18;105222.72;;;5.39;100.00
9784;BME280;4931;44.874;-1.092;2024-02-04T10:51:45;105228.16;;;5.39;100.00
9784;BME280;4931;44.874;-1.092;2024-02-04T10:54:15;105229.25;;;5.27;100.00
9784;BME280;4931;44.874;-1.092;2024-02-04T10:56:45;105232.47;;;5.42;100.00
9784;BME280;4931;44.874;-1.092;2024-02-04T10:59:13;105227.34;;;5.48;100.00
9784;BME280;4931;44.874;-1.092;2024-02-04T11:01:43;105232.53;;;5.52;100.00
9784;BME280;4931;44.874;-1.092;2024-02-04T11:04:11;105225.72;;;5.36;100.00
9784;BME280;4931;44.874;-1.092;2024-02-04T11:06:40;105221.66;;;5.52;100.00
9784;BME280;4931;44.874;-1.092;2024-02-04T11:09:06;105216.72;;;5.45;100.00
9784;BME280;4931;44.874;-1.092;2024-02-04T11:11:38;105218.72;;;5.43;100.00
9784;BME280;4931;44.874;-1.092;2024-02-04T11:14:08;105210.69;;;5.42;100.00
9784;BME280;4931;44.874;-1.092;2024-02-04T11:25:42;105204.69;;;5.48;100.00
9784;BME280;4931;44.874;-1.092;2024-02-04T11:28:11;105196.38;;;5.49;100.00
9784;BME280;4931;44.874;-1.092;2024-02-04T11:30:36;105204.81;;;5.77;100.00
9784;BME280;4931;44.874;-1.092;2024-02-04T11:33:06;105194.63;;;5.79;100.00
9784;BME280;4931;44.874;-1.092;2024-02-04T11:35:34;105166.09;;;5.84;100.00
9784;BME280;4931;44.874;-1.092;2024-02-04T11:38:02;105151.88;;;5.70;100.00
9784;BME280;4931;44.874;-1.092;2024-02-04T11:40:34;105148.97;;;5.62;100.00
9784;BME280;4931;44.874;-1.092;2024-02-04T11:43:07;105144.69;;;5.79;100.00
9784;BME280;4931;44.874;-1.092;2024-02-04T11:45:42;105158.97;;;5.92;100.00
9784;BME280;4931;44.874;-1.092;2024-02-04T11:48:11;105138.03;;;6.03;100.00
9784;BME280;4931;44.874;-1.092;2024-02-04T11:50:38;105138.34;;;6.19;100.00
9784;BME280;4931;44.874;-1.092;2024-02-04T11:53:13;105103.63;;;6.02;100.00
9784;BME280;4931;44.874;-1.092;2024-02-04T11:55:40;105103.88;;;6.18;100.00
9784;BME280;4931;44.874;-1.092;2024-02-04T11:58:06;105115.06;;;6.25;100.00
9784;BME280;4931;44.874;-1.092;2024-02-04T12:00:33;105111.63;;;6.42;100.00
9784;BME280;4931;44.874;-1.092;2024-02-04T12:03:06;105108.19;;;6.50;100.00
9784;BME280;4931;44.874;-1.092;2024-02-04T12:05:33;105091.50;;;6.43;100.00
9784;BME280;4931;44.874;-1.092;2024-02-04T12:08:01;105081.31;;;6.45;100.00
9784;BME280;4931;44.874;-1.092;2024-02-04T12:10:27;105067.81;;;6.54;100.00
9784;BME280;4931;44.874;-1.092;2024-02-04T12:12:56;105061.06;;;6.48;100.00
9784;BME280;4931;44.874;-1.092;2024-02-04T12:15:22;105059.44;;;6.65;100.00
9784;BME280;4931;44.874;-1.092;2024-02-04T12:17:47;105032.25;;;6.36;100.00
9784;BME280;4931;44.874;-1.092;2024-02-04T12:20:13;105022.31;;;6.44;100.00
9784;BME280;4931;44.874;-1.092;2024-02-04T12:22:38;105020.59;;;6.43;100.00
9784;BME280;4931;44.874;-1.092;2024-02-04T12:25:05;105023.44;;;6.52;100.00
9784;BME280;4931;44.874;-1.092;2024-02-04T12:27:31;105019.53;;;6.64;100.00
9784;BME280;4931;44.874;-1.092;2024-02-04T12:29:56;105021.25;;;6.65;100.00
9784;BME280;4931;44.874;-1.092;2024-02-04T12:32:22;105011.38;;;6.54;100.00
9784;BME280;4931;44.874;-1.092;2024-02-04T12:34:51;105004.34;;;6.52;100.00
9784;BME280;4931;44.874;-1.092;2024-02-04T12:37:19;105002.16;;;6.65;100.00
9784;BME280;4931;44.874;-1.092;2024-02-04T12:39:45;105000.41;;;6.64;100.00
9784;BME280;4931;44.874;-1.092;2024-02-04T12:42:15;104996.84;;;6.63;100.00
9784;BME280;4931;44.874;-1.092;2024-02-04T12:44:44;104990.31;;;6.74;100.00
9784;BME280;4931;44.874;-1.092;2024-02-04T12:47:09;104989.84;;;6.51;100.00
9784;BME280;4931;44.874;-1.092;2024-02-04T12:49:35;104978.03;;;6.60;100.00
9784;BME280;4931;44.874;-1.092;2024-02-04T12:52:05;104959.69;;;6.53;100.00
9784;BME280;4931;44.874;-1.092;2024-02-04T12:54:31;104966.44;;;6.48;100.00
9784;BME280;4931;44.874;-1.092;2024-02-04T12:56:56;104962.28;;;6.44;100.00
9784;BME280;4931;44.874;-1.092;2024-02-04T12:59:29;104958.97;;;6.51;100.00
9784;BME280;4931;44.874;-1.092;2024-02-04T13:01:57;104966.25;;;6.60;100.00
9784;BME280;4931;44.874;-1.092;2024-02-04T13:04:23;104969.41;;;6.65;100.00